Time;durP1;ratioP1;P1;durP2;ratioP2;P2;SDS_P1;SDS_P2;PMS_P1;PMS_P2;Temp;Humidity;BMP_temperature;BMP_pressure;BME280_temperature;BME280_humidity;BME280_pressure;Samples;Min_cycle;Max_cycle;Signal;HPM_P1;HPM_P2
2022/07/06 00:01:21;;;;;;;2.67;1.37;;;;;;;;;;4964690;28;20191;-86
2022/07/06 00:04:25;;;;;;;1.37;1.07;;;;;;;;;;4968043;28;20186;-85
2022/07/06 00:07:30;;;;;;;2.60;1.40;;;;;;;;;;4989232;28;20645;-86
2022/07/06 00:10:34;;;;;;;1.77;1.40;;;;;;;;;;4937519;29;20223;-85
2022/07/06 00:13:38;;;;;;;2.77;1.17;;;;;;;;;;4948890;29;20187;-85
2022/07/06 00:16:42;;;;;;;2.40;1.10;;;;;;;;;;4958746;28;20202;-85
2022/07/06 00:19:46;;;;;;;2.90;1.30;;;;;;;;;;4955331;28;20230;-85
2022/07/06 00:22:50;;;;;;;1.40;1.30;;;;;;;;;;4944702;28;20191;-86
2022/07/06 00:25:55;;;;;;;2.10;1.17;;;;;;;;;;4966849;28;20191;-85
2022/07/06 00:28:59;;;;;;;2.27;1.13;;;;;;;;;;4954805;28;20210;-85
2022/07/06 00:32:03;;;;;;;2.27;1.40;;;;;;;;;;4954590;28;20179;-85
2022/07/06 00:35:07;;;;;;;2.33;1.40;;;;;;;;;;4956110;28;20183;-85
2022/07/06 00:38:11;;;;;;;4.03;1.40;;;;;;;;;;4973210;28;20183;-85
2022/07/06 00:41:16;;;;;;;3.23;1.17;;;;;;;;;;4950855;28;20230;-86
2022/07/06 00:44:20;;;;;;;2.20;1.30;;;;;;;;;;4960555;28;20191;-84
2022/07/06 00:47:24;;;;;;;4.63;1.70;;;;;;;;;;4943520;28;20187;-85
2022/07/06 00:50:28;;;;;;;4.30;1.30;;;;;;;;;;4943412;28;20218;-85
2022/07/06 00:53:33;;;;;;;1.63;1.20;;;;;;;;;;4944474;28;20199;-85
2022/07/06 00:56:37;;;;;;;2.33;1.40;;;;;;;;;;4944322;28;20202;-86
2022/07/06 00:59:42;;;;;;;1.40;1.20;;;;;;;;;;4971424;28;20219;-85
2022/07/06 01:02:46;;;;;;;4.57;1.27;;;;;;;;;;4972615;28;20187;-84
2022/07/06 01:05:51;;;;;;;1.73;1.30;;;;;;;;;;4957189;28;20191;-87
2022/07/06 01:08:55;;;;;;;1.93;1.10;;;;;;;;;;4944085;28;20234;-86
2022/07/06 01:12:00;;;;;;;2.70;1.37;;;;;;;;;;4947990;28;20207;-84
2022/07/06 01:15:06;;;;;;;2.20;1.23;;;;;;;;;;4954202;28;20179;-85
2022/07/06 01:18:12;;;;;;;3.63;1.40;;;;;;;;;;4953735;28;20535;-84
2022/07/06 01:21:16;;;;;;;2.77;1.47;;;;;;;;;;4953047;28;20226;-86
2022/07/06 01:24:20;;;;;;;2.83;1.10;;;;;;;;;;4973342;28;20191;-85
2022/07/06 01:27:24;;;;;;;4.57;1.40;;;;;;;;;;4973753;28;20185;-85
2022/07/06 01:30:28;;;;;;;1.63;1.27;;;;;;;;;;4974716;28;20218;-85
2022/07/06 01:33:33;;;;;;;3.20;1.10;;;;;;;;;;4973772;28;20530;-86
2022/07/06 01:36:37;;;;;;;3.53;1.40;;;;;;;;;;4975507;28;20191;-85
2022/07/06 01:39:42;;;;;;;4.43;1.43;;;;;;;;;;4963869;28;20225;-84
2022/07/06 01:42:46;;;;;;;3.10;1.40;;;;;;;;;;4959391;28;20207;-84
2022/07/06 01:45:51;;;;;;;1.43;1.10;;;;;;;;;;4953746;28;20630;-84
2022/07/06 01:48:55;;;;;;;3.70;1.30;;;;;;;;;;4953442;28;20218;-85
2022/07/06 01:51:59;;;;;;;3.37;1.70;;;;;;;;;;4952725;28;20634;-84
2022/07/06 01:55:04;;;;;;;2.77;1.40;;;;;;;;;;4943774;28;20186;-86
2022/07/06 01:58:11;;;;;;;3.07;1.53;;;;;;;;;;4945088;28;20187;-84
2022/07/06 02:01:18;;;;;;;1.73;1.30;;;;;;;;;;4945573;28;20531;-86
2022/07/06 02:04:23;;;;;;;1.83;1.30;;;;;;;;;;4957215;28;20182;-86
2022/07/06 02:07:28;;;;;;;4.00;1.47;;;;;;;;;;4945439;28;20183;-86
2022/07/06 02:10:32;;;;;;;2.00;1.27;;;;;;;;;;4945300;28;20234;-85
2022/07/06 02:13:36;;;;;;;1.47;1.33;;;;;;;;;;4945059;28;20203;-87
2022/07/06 02:16:43;;;;;;;1.67;1.40;;;;;;;;;;4965195;28;20190;-85
2022/07/06 02:19:47;;;;;;;1.63;1.40;;;;;;;;;;4964323;28;20221;-86
2022/07/06 02:22:52;;;;;;;3.30;1.50;;;;;;;;;;4963651;28;20202;-85
2022/07/06 02:25:56;;;;;;;3.43;1.30;;;;;;;;;;4938851;29;20195;-86
2022/07/06 02:29:01;;;;;;;4.20;1.50;;;;;;;;;;4937170;29;20211;-86
2022/07/06 02:32:07;;;;;;;2.97;1.40;;;;;;;;;;4962482;28;20194;-86
2022/07/06 02:35:12;;;;;;;1.90;1.60;;;;;;;;;;4965095;28;20182;-85
2022/07/06 02:38:16;;;;;;;1.47;1.20;;;;;;;;;;4986690;28;20201;-85
2022/07/06 02:41:20;;;;;;;3.67;1.50;;;;;;;;;;4965224;28;20217;-84
2022/07/06 02:44:25;;;;;;;6.50;1.50;;;;;;;;;;4947141;29;20199;-85
2022/07/06 02:47:31;;;;;;;6.30;1.50;;;;;;;;;;4930241;29;20646;-84
2022/07/06 02:50:35;;;;;;;2.93;1.80;;;;;;;;;;4933446;28;20234;-84
2022/07/06 02:53:39;;;;;;;2.37;1.30;;;;;;;;;;4948665;28;20194;-84
2022/07/06 02:56:50;;;;;;;3.77;1.50;;;;;;;;;;4950788;28;20179;-85
2022/07/06 02:59:54;;;;;;;2.00;1.53;;;;;;;;;;4941421;28;20215;-84
2022/07/06 03:02:58;;;;;;;2.50;1.40;;;;;;;;;;4933767;29;20183;-85
2022/07/06 03:06:03;;;;;;;2.83;1.80;;;;;;;;;;4922347;29;20183;-85
2022/07/06 03:09:09;;;;;;;2.50;1.50;;;;;;;;;;4932938;29;20231;-86
2022/07/06 03:12:13;;;;;;;2.70;1.63;;;;;;;;;;4945941;28;20210;-84
2022/07/06 03:15:18;;;;;;;6.40;1.40;;;;;;;;;;4971835;28;20542;-85
2022/07/06 03:18:24;;;;;;;3.07;1.60;;;;;;;;;;4943636;28;20199;-86
2022/07/06 03:21:29;;;;;;;3.97;1.53;;;;;;;;;;4944885;29;20188;-86
2022/07/06 03:24:33;;;;;;;3.13;1.53;;;;;;;;;;4933861;29;20203;-85
2022/07/06 03:27:37;;;;;;;2.20;1.90;;;;;;;;;;4956218;28;20206;-85
2022/07/06 03:30:41;;;;;;;2.47;1.63;;;;;;;;;;4957331;28;20231;-86
2022/07/06 03:33:45;;;;;;;1.70;1.60;;;;;;;;;;4960167;28;20210;-85
2022/07/06 03:36:50;;;;;;;3.83;1.60;;;;;;;;;;4945615;28;20203;-85
2022/07/06 03:39:54;;;;;;;1.43;1.33;;;;;;;;;;4967695;28;20233;-85
2022/07/06 03:42:59;;;;;;;3.53;1.50;;;;;;;;;;4939341;29;20548;-84
2022/07/06 03:46:05;;;;;;;1.83;1.60;;;;;;;;;;4944966;28;20538;-86
2022/07/06 03:49:09;;;;;;;3.50;1.77;;;;;;;;;;4953484;29;20575;-85
2022/07/06 03:52:14;;;;;;;3.83;1.70;;;;;;;;;;4937421;29;20556;-84
2022/07/06 03:55:23;;;;;;;4.00;1.73;;;;;;;;;;4949173;29;20187;-85
2022/07/06 03:58:33;;;;;;;4.37;1.97;;;;;;;;;;4937816;29;20630;-84
2022/07/06 04:01:37;;;;;;;4.37;1.80;;;;;;;;;;4950689;29;20180;-85
2022/07/06 04:04:42;;;;;;;8.23;1.90;;;;;;;;;;4937644;29;20543;-84
2022/07/06 04:07:48;;;;;;;12.73;1.83;;;;;;;;;;4937516;29;20199;-84
2022/07/06 04:10:52;;;;;;;5.03;1.67;;;;;;;;;;4935606;29;20246;-85
2022/07/06 04:13:56;;;;;;;4.33;1.80;;;;;;;;;;4925176;29;20192;-85
2022/07/06 04:17:51;;;;;;;2.87;1.83;;;;;;;;;;4932979;29;20195;-85
2022/07/06 04:20:26;;;;;;;2.87;1.63;;;;;;;;;;4946579;29;20227;-85
2022/07/06 04:23:31;;;;;;;1.80;1.70;;;;;;;;;;4936063;29;20528;-84
2022/07/06 04:26:35;;;;;;;2.93;1.80;;;;;;;;;;4943594;28;20195;-84
2022/07/06 04:29:40;;;;;;;3.63;1.80;;;;;;;;;;4943707;28;20226;-84
2022/07/06 04:32:45;;;;;;;3.37;1.90;;;;;;;;;;4954558;28;20187;-84
2022/07/06 04:35:49;;;;;;;3.27;1.90;;;;;;;;;;4943741;28;20638;-84
2022/07/06 04:38:53;;;;;;;3.33;2.20;;;;;;;;;;4943201;28;20543;-84
2022/07/06 04:41:58;;;;;;;2.33;1.67;;;;;;;;;;4943360;28;20180;-85
2022/07/06 04:45:03;;;;;;;2.97;2.33;;;;;;;;;;4943357;28;20618;-84
2022/07/06 04:48:08;;;;;;;3.27;1.97;;;;;;;;;;4961968;28;20202;-83
2022/07/06 04:51:14;;;;;;;3.27;2.07;;;;;;;;;;4962132;28;20225;-84
2022/07/06 04:54:18;;;;;;;3.97;2.00;;;;;;;;;;4962520;28;20190;-84
2022/07/06 04:57:22;;;;;;;3.23;2.10;;;;;;;;;;4973512;28;20185;-84
2022/07/06 05:00:27;;;;;;;3.03;1.83;;;;;;;;;;4955202;28;20214;-84
2022/07/06 05:03:35;;;;;;;2.87;1.90;;;;;;;;;;4943220;28;20630;-85
2022/07/06 05:06:39;;;;;;;5.20;1.83;;;;;;;;;;4934993;28;20203;-85
2022/07/06 05:09:45;;;;;;;8.90;2.57;;;;;;;;;;4934426;29;20580;-84
2022/07/06 05:12:48;;;;;;;3.27;2.00;;;;;;;;;;4923881;29;20536;-83
2022/07/06 05:15:53;;;;;;;5.97;2.23;;;;;;;;;;4932572;28;20206;-84
2022/07/06 05:18:58;;;;;;;5.40;2.13;;;;;;;;;;4942072;28;20662;-84
2022/07/06 05:22:02;;;;;;;3.87;2.10;;;;;;;;;;4953115;28;20203;-84
2022/07/06 05:25:08;;;;;;;3.73;1.73;;;;;;;;;;4943954;28;20524;-84
2022/07/06 05:28:12;;;;;;;10.40;2.20;;;;;;;;;;4953316;28;20187;-84
2022/07/06 05:31:16;;;;;;;4.30;2.23;;;;;;;;;;4942817;28;20713;-83
2022/07/06 05:34:20;;;;;;;5.00;2.30;;;;;;;;;;4944418;28;20183;-84
2022/07/06 05:37:25;;;;;;;3.33;1.90;;;;;;;;;;4965081;28;20178;-83
2022/07/06 05:40:29;;;;;;;5.83;2.57;;;;;;;;;;4954990;28;20226;-84
2022/07/06 05:43:37;;;;;;;3.63;1.83;;;;;;;;;;4956695;28;20634;-84
2022/07/06 05:46:41;;;;;;;2.73;1.90;;;;;;;;;;4944474;28;20179;-84
2022/07/06 05:53:09;;;;;;;1.97;1.80;;;;;;;;;;4953618;28;20195;-85
2022/07/06 05:56:13;;;;;;;6.40;2.00;;;;;;;;;;4965614;28;20191;-84
2022/07/06 05:59:18;;;;;;;4.43;1.93;;;;;;;;;;4953357;28;20227;-85
2022/07/06 06:02:22;;;;;;;3.63;2.10;;;;;;;;;;4952746;28;20175;-85
2022/07/06 06:05:27;;;;;;;3.03;2.30;;;;;;;;;;4942787;28;20199;-86
2022/07/06 06:08:35;;;;;;;3.57;2.20;;;;;;;;;;4968728;28;20201;-85
2022/07/06 06:11:41;;;;;;;3.13;2.00;;;;;;;;;;4961705;28;20210;-84
2022/07/06 06:14:45;;;;;;;2.97;1.90;;;;;;;;;;4962017;28;20183;-85
2022/07/06 06:17:50;;;;;;;2.30;2.00;;;;;;;;;;4940439;28;20192;-85
2022/07/06 06:20:54;;;;;;;2.83;2.07;;;;;;;;;;4953127;28;20226;-85
2022/07/06 06:23:58;;;;;;;2.77;1.77;;;;;;;;;;4964675;28;20555;-85
2022/07/06 06:27:03;;;;;;;3.87;2.10;;;;;;;;;;4952486;28;20203;-85
2022/07/06 06:30:08;;;;;;;4.37;1.93;;;;;;;;;;4937425;28;20227;-85
2022/07/06 06:33:19;;;;;;;4.67;2.13;;;;;;;;;;4965404;28;20183;-86
2022/07/06 06:36:23;;;;;;;6.10;1.97;;;;;;;;;;4938100;28;20199;-86
2022/07/06 06:39:27;;;;;;;4.07;2.10;;;;;;;;;;4922897;29;20231;-85
2022/07/06 06:42:32;;;;;;;2.43;2.03;;;;;;;;;;4995066;23;20241;-84
2022/07/06 06:45:37;;;;;;;3.47;1.80;;;;;;;;;;4961817;28;20197;-84
2022/07/06 06:48:42;;;;;;;2.73;1.87;;;;;;;;;;4961642;28;20205;-84
2022/07/06 06:51:46;;;;;;;15.03;2.07;;;;;;;;;;4972145;28;20226;-85
2022/07/06 06:54:50;;;;;;;7.93;2.00;;;;;;;;;;4953118;28;20214;-84
2022/07/06 06:57:54;;;;;;;4.37;2.00;;;;;;;;;;4961663;28;20186;-84
2022/07/06 07:00:59;;;;;;;5.20;1.70;;;;;;;;;;4962542;28;20182;-85
2022/07/06 07:04:03;;;;;;;4.37;2.07;;;;;;;;;;4975159;28;20676;-84
2022/07/06 07:07:07;;;;;;;2.77;1.70;;;;;;;;;;4973013;28;20201;-84
2022/07/06 07:10:11;;;;;;;8.90;2.17;;;;;;;;;;4946052;28;20214;-84
2022/07/06 07:13:15;;;;;;;4.73;1.80;;;;;;;;;;4956532;28;20183;-84
2022/07/06 07:16:20;;;;;;;3.33;1.67;;;;;;;;;;4954548;28;20190;-85
2022/07/06 07:19:24;;;;;;;3.37;1.80;;;;;;;;;;4958615;28;20199;-85
2022/07/06 07:22:28;;;;;;;3.00;1.70;;;;;;;;;;4959457;28;20214;-85
2022/07/06 07:25:32;;;;;;;5.00;1.50;;;;;;;;;;4963476;28;20182;-85
2022/07/06 07:28:36;;;;;;;4.93;1.77;;;;;;;;;;4964112;28;20178;-85
2022/07/06 07:31:40;;;;;;;34.70;4.23;;;;;;;;;;4984119;28;20234;-85
2022/07/06 07:34:44;;;;;;;5.33;1.77;;;;;;;;;;4955314;28;20205;-85
2022/07/06 07:37:48;;;;;;;2.17;1.40;;;;;;;;;;4965514;28;20202;-85
2022/07/06 07:40:54;;;;;;;11.47;3.30;;;;;;;;;;4964153;28;20202;-83
2022/07/06 07:43:58;;;;;;;5.00;1.60;;;;;;;;;;4964974;28;20198;-82
2022/07/06 07:47:02;;;;;;;7.63;1.80;;;;;;;;;;4963720;28;20186;-82
2022/07/06 07:50:06;;;;;;;5.03;2.07;;;;;;;;;;4963747;28;20179;-83
2022/07/06 07:53:10;;;;;;;5.77;1.87;;;;;;;;;;4985105;28;20226;-84
2022/07/06 07:56:15;;;;;;;5.13;1.50;;;;;;;;;;4963859;28;20622;-83
2022/07/06 07:59:19;;;;;;;4.63;2.03;;;;;;;;;;4974577;28;20184;-83
2022/07/06 08:02:24;;;;;;;3.23;1.70;;;;;;;;;;4963268;28;20215;-85
2022/07/06 08:05:28;;;;;;;3.80;1.67;;;;;;;;;;4971224;28;20644;-86
2022/07/06 08:08:32;;;;;;;2.77;1.67;;;;;;;;;;4955194;28;20679;-86
2022/07/06 08:11:37;;;;;;;5.23;1.77;;;;;;;;;;4943757;28;20230;-86
2022/07/06 08:14:41;;;;;;;4.22;2.00;;;;;;;;;;4961843;28;20200;-86
2022/07/06 08:17:45;;;;;;;4.78;1.70;;;;;;;;;;4973559;28;20189;-86
2022/07/06 08:20:49;;;;;;;3.38;1.85;;;;;;;;;;4984645;28;20185;-87
2022/07/06 08:23:54;;;;;;;6.88;2.03;;;;;;;;;;4964974;28;20188;-86
2022/07/06 08:26:59;;;;;;;6.20;1.70;;;;;;;;;;4965153;28;20194;-86
2022/07/06 08:30:04;;;;;;;3.20;1.65;;;;;;;;;;4942762;28;20200;-86
2022/07/06 08:33:08;;;;;;;6.38;1.80;;;;;;;;;;4976737;28;20229;-86
2022/07/06 08:36:12;;;;;;;4.80;1.55;;;;;;;;;;4954120;28;20182;-86
2022/07/06 08:39:17;;;;;;;4.90;1.90;;;;;;;;;;4953574;28;20192;-86
2022/07/06 08:42:24;;;;;;;5.47;1.80;;;;;;;;;;4958331;28;20222;-86
2022/07/06 08:45:30;;;;;;;5.95;1.75;;;;;;;;;;4959074;28;20190;-86
2022/07/06 08:48:40;;;;;;;4.55;1.45;;;;;;;;;;4962020;28;20657;-86
2022/07/06 08:51:45;;;;;;;4.22;1.35;;;;;;;;;;4968429;28;20238;-86
2022/07/06 08:54:49;;;;;;;6.32;1.45;;;;;;;;;;4972159;28;20192;-86
2022/07/06 08:57:57;;;;;;;3.03;1.90;;;;;;;;;;4961664;28;20186;-86
2022/07/06 09:01:01;;;;;;;4.75;1.50;;;;;;;;;;4968185;28;20665;-86
2022/07/06 09:04:07;;;;;;;6.95;1.70;;;;;;;;;;4972787;28;20182;-86
2022/07/06 09:07:11;;;;;;;5.70;1.83;;;;;;;;;;4961124;28;20213;-86
2022/07/06 09:10:19;;;;;;;2.47;1.60;;;;;;;;;;4963095;28;20198;-87
2022/07/06 09:13:23;;;;;;;7.28;1.75;;;;;;;;;;4975743;28;20194;-86
2022/07/06 09:16:29;;;;;;;5.22;1.75;;;;;;;;;;4961334;28;20183;-85
2022/07/06 09:19:35;;;;;;;8.07;2.22;;;;;;;;;;4953866;28;20195;-87
2022/07/06 09:22:40;;;;;;;2.90;1.80;;;;;;;;;;4942005;28;20682;-86
2022/07/06 09:25:51;;;;;;;4.55;1.83;;;;;;;;;;4972052;28;20198;-86
2022/07/06 09:28:56;;;;;;;2.38;1.52;;;;;;;;;;4959243;28;20195;-86
2022/07/06 09:32:03;;;;;;;2.72;1.40;;;;;;;;;;4960647;28;20230;-86
2022/07/06 09:35:08;;;;;;;2.08;1.25;;;;;;;;;;4982769;28;20202;-86
2022/07/06 09:38:14;;;;;;;3.33;1.40;;;;;;;;;;4952632;28;20309;-86
2022/07/06 09:41:31;;;;;;;7.53;1.75;;;;;;;;;;4955391;28;20585;-86
2022/07/06 09:44:39;;;;;;;4.47;1.50;;;;;;;;;;4944372;28;20200;-86
2022/07/06 09:47:47;;;;;;;2.97;1.60;;;;;;;;;;4975541;28;20191;-87
2022/07/06 09:50:54;;;;;;;3.25;1.33;;;;;;;;;;4952099;28;20195;-87
2022/07/06 09:53:59;;;;;;;4.57;1.40;;;;;;;;;;4958763;28;20218;-87
2022/07/06 09:57:05;;;;;;;3.00;1.40;;;;;;;;;;4941654;28;20206;-86
2022/07/06 10:00:10;;;;;;;2.95;1.38;;;;;;;;;;4952356;28;20195;-86
2022/07/06 10:03:17;;;;;;;3.20;1.58;;;;;;;;;;4971908;28;20178;-87
2022/07/06 10:06:25;;;;;;;7.18;1.20;;;;;;;;;;4971798;28;20547;-87
2022/07/06 10:09:29;;;;;;;2.97;1.55;;;;;;;;;;4952044;28;20195;-87
2022/07/06 10:12:37;;;;;;;4.00;1.58;;;;;;;;;;4957842;28;20227;-87
2022/07/06 10:15:41;;;;;;;5.25;1.50;;;;;;;;;;4941115;28;20199;-87
2022/07/06 10:18:45;;;;;;;5.22;1.52;;;;;;;;;;4952065;28;20183;-87
2022/07/06 10:21:51;;;;;;;4.20;1.38;;;;;;;;;;4967252;28;20222;-86
2022/07/06 10:24:57;;;;;;;4.30;1.50;;;;;;;;;;4960319;28;20203;-84
2022/07/06 10:28:02;;;;;;;3.72;1.42;;;;;;;;;;4948209;28;20207;-84
2022/07/06 10:31:07;;;;;;;3.85;1.70;;;;;;;;;;4951403;28;20235;-85
2022/07/06 10:34:14;;;;;;;2.53;1.30;;;;;;;;;;4952301;28;20191;-85
2022/07/06 10:37:26;;;;;;;2.38;1.67;;;;;;;;;;4947307;28;20199;-85
2022/07/06 10:44:17;;;;;;;3.63;1.30;;;;;;;;;;4958115;28;20187;-85
2022/07/06 10:47:27;;;;;;;4.30;1.35;;;;;;;;;;4963450;28;20194;-87
2022/07/06 10:50:35;;;;;;;2.13;1.40;;;;;;;;;;4966327;28;20191;-87
2022/07/06 10:53:40;;;;;;;3.22;1.15;;;;;;;;;;4987780;28;20194;-87
2022/07/06 10:56:46;;;;;;;2.65;1.25;;;;;;;;;;4969479;28;20199;-87
2022/07/06 11:00:02;;;;;;;2.78;1.25;;;;;;;;;;4957637;28;20202;-87
2022/07/06 11:03:38;;;;;;;5.75;1.35;;;;;;;;;;4961052;28;20214;-87
2022/07/06 11:06:45;;;;;;;3.10;1.40;;;;;;;;;;4986074;28;20187;-87
2022/07/06 11:09:57;;;;;;;2.60;1.40;;;;;;;;;;4966416;28;20186;-87
2022/07/06 11:13:01;;;;;;;8.57;1.85;;;;;;;;;;4977001;28;20226;-87
2022/07/06 11:16:05;;;;;;;2.70;1.45;;;;;;;;;;4978860;28;20677;-87
2022/07/06 11:19:12;;;;;;;2.25;1.10;;;;;;;;;;4977161;28;20190;-86
2022/07/06 11:22:18;;;;;;;5.88;1.55;;;;;;;;;;4977193;28;20214;-86
2022/07/06 11:25:22;;;;;;;3.70;1.30;;;;;;;;;;4988532;28;20186;-87
2022/07/06 11:28:27;;;;;;;1.67;1.20;;;;;;;;;;4976828;28;20645;-87
2022/07/06 11:31:56;;;;;;;2.13;1.40;;;;;;;;;;4965956;28;20256;-86
2022/07/06 11:35:00;;;;;;;5.22;1.30;;;;;;;;;;4974329;28;20645;-86
2022/07/06 11:38:26;;;;;;;4.95;1.30;;;;;;;;;;4977015;28;20187;-86
2022/07/06 11:41:30;;;;;;;4.55;1.27;;;;;;;;;;4977119;28;20569;-86
2022/07/06 11:44:36;;;;;;;3.45;1.40;;;;;;;;;;4976691;28;20203;-86
2022/07/06 11:47:40;;;;;;;4.72;1.13;;;;;;;;;;4964103;28;20636;-87
2022/07/06 11:50:57;;;;;;;3.78;1.17;;;;;;;;;;4963139;28;20625;-87
2022/07/06 11:54:08;;;;;;;2.70;1.10;;;;;;;;;;4943716;28;20178;-86
2022/07/06 11:57:12;;;;;;;4.28;0.98;;;;;;;;;;4965296;28;20205;-86
2022/07/06 12:00:20;;;;;;;1.30;1.10;;;;;;;;;;4965644;28;20539;-86
2022/07/06 12:03:24;;;;;;;2.75;1.08;;;;;;;;;;4965387;28;20185;-86
2022/07/06 12:06:29;;;;;;;4.45;1.10;;;;;;;;;;4965529;28;20190;-86
2022/07/06 12:09:35;;;;;;;2.00;1.00;;;;;;;;;;4965712;28;20191;-87
2022/07/06 12:12:39;;;;;;;6.90;1.50;;;;;;;;;;4943296;28;20227;-87
2022/07/06 12:15:43;;;;;;;3.10;0.95;;;;;;;;;;4965312;28;20527;-87
2022/07/06 12:18:47;;;;;;;1.13;0.90;;;;;;;;;;4954468;28;20188;-87
2022/07/06 12:21:56;;;;;;;1.67;1.05;;;;;;;;;;4954079;28;20215;-89
2022/07/06 12:24:59;;;;;;;3.10;1.02;;;;;;;;;;4954407;28;20192;-87
2022/07/06 12:28:04;;;;;;;4.15;1.00;;;;;;;;;;4954245;28;20631;-88
2022/07/06 12:31:09;;;;;;;1.58;1.00;;;;;;;;;;4943310;28;20191;-87
2022/07/06 12:34:17;;;;;;;1.50;1.00;;;;;;;;;;4965464;28;20183;-87
2022/07/06 12:37:20;;;;;;;1.48;0.93;;;;;;;;;;4943104;28;20523;-87
2022/07/06 12:40:27;;;;;;;1.83;1.10;;;;;;;;;;4953740;28;20207;-87
2022/07/06 12:43:36;;;;;;;3.03;1.20;;;;;;;;;;5004481;23;20243;-87
2022/07/06 12:46:40;;;;;;;4.70;0.82;;;;;;;;;;4981972;28;20195;-88
2022/07/06 12:49:46;;;;;;;3.80;1.20;;;;;;;;;;4952093;28;20195;-88
2022/07/06 12:52:50;;;;;;;5.78;0.98;;;;;;;;;;4959528;28;20235;-88
2022/07/06 12:56:11;;;;;;;2.78;1.10;;;;;;;;;;4934781;29;20513;-87
2022/07/06 12:59:22;;;;;;;3.00;0.85;;;;;;;;;;4923308;29;20184;-87
2022/07/06 13:02:30;;;;;;;5.45;1.33;;;;;;;;;;4937193;28;20659;-87
2022/07/06 13:05:35;;;;;;;3.50;1.00;;;;;;;;;;4953317;28;20527;-88
2022/07/06 13:08:39;;;;;;;1.30;0.90;;;;;;;;;;4942125;28;20187;-88
2022/07/06 13:11:43;;;;;;;2.67;1.20;;;;;;;;;;4953014;28;20206;-88
2022/07/06 13:14:48;;;;;;;1.88;0.90;;;;;;;;;;4952911;28;20187;-88
2022/07/06 13:17:52;;;;;;;2.78;1.17;;;;;;;;;;4942088;28;20195;-88
2022/07/06 13:20:56;;;;;;;2.25;1.27;;;;;;;;;;4964268;28;20187;-88
2022/07/06 13:24:01;;;;;;;1.60;1.00;;;;;;;;;;4953463;28;20226;-88
2022/07/06 13:27:05;;;;;;;3.20;0.90;;;;;;;;;;4953996;28;20191;-87
2022/07/06 13:30:10;;;;;;;2.88;1.17;;;;;;;;;;4941305;28;20223;-88
2022/07/06 13:33:14;;;;;;;1.63;0.82;;;;;;;;;;4963959;28;20239;-88
2022/07/06 13:36:18;;;;;;;3.35;0.88;;;;;;;;;;4952544;28;20199;-88
2022/07/06 13:39:23;;;;;;;3.35;0.90;;;;;;;;;;4935358;29;20191;-88
2022/07/06 13:42:27;;;;;;;5.28;1.05;;;;;;;;;;4933277;29;20188;-88
2022/07/06 13:45:31;;;;;;;1.70;1.08;;;;;;;;;;4944536;29;20188;-88
2022/07/06 13:48:36;;;;;;;1.40;0.98;;;;;;;;;;4933792;29;20191;-88
2022/07/06 13:51:40;;;;;;;4.65;1.13;;;;;;;;;;4932985;29;20204;-88
2022/07/06 13:54:44;;;;;;;2.25;1.10;;;;;;;;;;4938640;28;20192;-88
2022/07/06 13:57:48;;;;;;;1.58;1.00;;;;;;;;;;4952424;28;20627;-88
2022/07/06 14:00:53;;;;;;;4.68;1.42;;;;;;;;;;4952270;28;20187;-88
2022/07/06 14:03:58;;;;;;;1.77;1.00;;;;;;;;;;4941933;28;20218;-87
2022/07/06 14:07:02;;;;;;;4.88;1.25;;;;;;;;;;4963911;28;20192;-87
2022/07/06 14:10:07;;;;;;;4.68;0.90;;;;;;;;;;4952149;28;20183;-86
2022/07/06 14:13:11;;;;;;;2.47;1.10;;;;;;;;;;4941835;28;20243;-86
2022/07/06 14:16:15;;;;;;;3.33;1.08;;;;;;;;;;4964188;28;20183;-86
2022/07/06 14:19:21;;;;;;;1.65;0.90;;;;;;;;;;4941921;28;20187;-83
2022/07/06 14:22:26;;;;;;;2.28;1.05;;;;;;;;;;4963894;28;20179;-84
2022/07/06 14:25:30;;;;;;;3.63;0.90;;;;;;;;;;4943092;28;20183;-84
2022/07/06 14:28:35;;;;;;;1.70;1.08;;;;;;;;;;4954995;28;20511;-86
2022/07/06 14:31:39;;;;;;;2.83;1.00;;;;;;;;;;4953717;28;20183;-86
2022/07/06 14:34:43;;;;;;;2.10;1.02;;;;;;;;;;4952949;28;20187;-86
2022/07/06 14:37:47;;;;;;;2.67;0.80;;;;;;;;;;4941742;28;20179;-85
2022/07/06 14:40:52;;;;;;;2.92;1.05;;;;;;;;;;4940381;28;20215;-86
2022/07/06 14:43:56;;;;;;;1.65;1.30;;;;;;;;;;4933053;29;20587;-86
2022/07/06 14:47:00;;;;;;;12.50;1.50;;;;;;;;;;4939491;28;20210;-87
2022/07/06 14:50:04;;;;;;;11.77;1.52;;;;;;;;;;4951965;28;20204;-86
2022/07/06 14:53:09;;;;;;;3.20;0.90;;;;;;;;;;4942227;28;20238;-87
2022/07/06 14:56:13;;;;;;;1.73;0.90;;;;;;;;;;4952447;28;20188;-86
2022/07/06 14:59:18;;;;;;;2.65;1.17;;;;;;;;;;4975185;28;20184;-86
2022/07/06 15:02:22;;;;;;;1.70;1.13;;;;;;;;;;4952358;28;20548;-86
2022/07/06 15:05:26;;;;;;;1.55;0.80;;;;;;;;;;4962605;28;20554;-87
2022/07/06 15:08:30;;;;;;;2.35;0.90;;;;;;;;;;4962371;28;20203;-84
2022/07/06 15:11:34;;;;;;;6.30;1.13;;;;;;;;;;4951156;28;20199;-84
2022/07/06 15:14:38;;;;;;;3.85;1.10;;;;;;;;;;4940246;28;20219;-85
2022/07/06 15:17:42;;;;;;;5.93;0.98;;;;;;;;;;4940330;28;20211;-84
2022/07/06 15:20:46;;;;;;;4.55;1.15;;;;;;;;;;4940619;28;20630;-86
2022/07/06 15:23:50;;;;;;;3.00;1.15;;;;;;;;;;4977828;28;20218;-85
2022/07/06 15:26:55;;;;;;;1.73;0.98;;;;;;;;;;4939115;28;20183;-88
2022/07/06 15:29:59;;;;;;;1.50;1.00;;;;;;;;;;4965494;28;20188;-86
2022/07/06 15:33:03;;;;;;;2.40;1.00;;;;;;;;;;4925362;28;20231;-86
2022/07/06 15:36:08;;;;;;;1.40;0.93;;;;;;;;;;4935989;28;20200;-85
2022/07/06 15:39:12;;;;;;;3.05;1.15;;;;;;;;;;4935608;29;20196;-85
2022/07/06 15:42:16;;;;;;;2.35;0.90;;;;;;;;;;4935778;28;20675;-85
2022/07/06 15:45:20;;;;;;;1.65;0.80;;;;;;;;;;4936146;29;20180;-85
2022/07/06 15:48:24;;;;;;;2.10;1.00;;;;;;;;;;4960403;28;20673;-85
2022/07/06 15:51:29;;;;;;;6.15;1.30;;;;;;;;;;4955696;28;20198;-85
2022/07/06 15:54:33;;;;;;;2.47;1.30;;;;;;;;;;4945521;28;20227;-85
2022/07/06 15:57:37;;;;;;;3.58;1.58;;;;;;;;;;4944279;28;20183;-85
2022/07/06 16:00:41;;;;;;;4.45;1.38;;;;;;;;;;4944872;28;20187;-85
2022/07/06 16:03:45;;;;;;;1.20;1.00;;;;;;;;;;4969660;28;20224;-85
2022/07/06 16:06:50;;;;;;;3.38;1.00;;;;;;;;;;4934265;28;20552;-86
2022/07/06 16:09:54;;;;;;;2.45;1.05;;;;;;;;;;4949785;28;20205;-85
2022/07/06 16:12:58;;;;;;;2.80;1.15;;;;;;;;;;4946895;28;20575;-86
2022/07/06 16:16:05;;;;;;;3.38;1.40;;;;;;;;;;4947956;28;20214;-85
2022/07/06 16:19:09;;;;;;;1.92;1.20;;;;;;;;;;4945785;28;20202;-85
2022/07/06 16:22:13;;;;;;;2.67;1.30;;;;;;;;;;4935032;28;20188;-88
2022/07/06 16:25:18;;;;;;;1.25;1.08;;;;;;;;;;4946513;28;20655;-89
2022/07/06 16:28:22;;;;;;;3.90;1.48;;;;;;;;;;4945548;28;20214;-89
2022/07/06 16:31:26;;;;;;;1.58;0.90;;;;;;;;;;4954079;28;20210;-90
2022/07/06 16:34:30;;;;;;;3.80;1.00;;;;;;;;;;4945217;28;20575;-90
2022/07/06 16:37:34;;;;;;;3.55;1.40;;;;;;;;;;4937451;29;20185;-89
2022/07/06 16:40:39;;;;;;;1.80;1.20;;;;;;;;;;4949900;28;20201;-90
2022/07/06 16:43:43;;;;;;;3.97;1.20;;;;;;;;;;4944934;28;20235;-90
2022/07/06 16:46:48;;;;;;;3.53;1.27;;;;;;;;;;4925716;29;20191;-90
2022/07/06 16:49:51;;;;;;;3.50;1.20;;;;;;;;;;4944664;28;20195;-90
2022/07/06 16:52:56;;;;;;;2.63;0.93;;;;;;;;;;4943188;28;20214;-90
2022/07/06 16:56:02;;;;;;;4.10;1.20;;;;;;;;;;4955283;28;20199;-90
2022/07/06 16:59:06;;;;;;;2.10;1.10;;;;;;;;;;4945203;28;20194;-90
2022/07/06 17:02:10;;;;;;;3.77;1.30;;;;;;;;;;4925919;29;20188;-89
2022/07/06 17:05:15;;;;;;;1.73;1.20;;;;;;;;;;4948058;28;20188;-90
2022/07/06 17:08:19;;;;;;;5.43;1.40;;;;;;;;;;4944174;28;20202;-89
2022/07/06 17:11:23;;;;;;;7.47;1.40;;;;;;;;;;4917651;29;20188;-89
2022/07/06 17:14:27;;;;;;;3.17;1.10;;;;;;;;;;4948875;28;20227;-90
2022/07/06 17:17:32;;;;;;;1.57;1.13;;;;;;;;;;4955490;28;20190;-89
2022/07/06 17:20:36;;;;;;;1.77;1.10;;;;;;;;;;4944058;28;20184;-89
2022/07/06 17:23:40;;;;;;;6.50;1.10;;;;;;;;;;4936132;28;20222;-89
2022/07/06 17:26:45;;;;;;;1.17;1.00;;;;;;;;;;4935116;29;20200;-89
2022/07/06 17:29:49;;;;;;;5.00;1.20;;;;;;;;;;4926266;29;20528;-89
2022/07/06 17:32:53;;;;;;;2.53;1.30;;;;;;;;;;4946600;28;20227;-90
2022/07/06 17:35:57;;;;;;;3.33;1.20;;;;;;;;;;4935243;28;20199;-86
2022/07/06 18:02:39;;;;;;;2.87;1.10;;;;;;;;;;4925523;29;20228;-88
2022/07/06 18:06:03;;;;;;;1.50;1.17;;;;;;;;;;4923584;28;20207;-89
2022/07/06 18:09:08;;;;;;;1.90;1.03;;;;;;;;;;4952948;28;20211;-87
2022/07/06 18:12:12;;;;;;;2.37;1.10;;;;;;;;;;4942310;28;20179;-88
2022/07/06 18:15:17;;;;;;;1.50;1.10;;;;;;;;;;4953749;28;20219;-88
2022/07/06 18:18:26;;;;;;;3.43;1.30;;;;;;;;;;4936652;28;20203;-88
2022/07/06 18:21:30;;;;;;;3.50;1.33;;;;;;;;;;4941835;28;20203;-88
2022/07/06 18:24:34;;;;;;;4.37;1.50;;;;;;;;;;4963239;28;20230;-88
2022/07/06 18:27:39;;;;;;;2.87;1.30;;;;;;;;;;4933915;29;20191;-88
2022/07/06 18:30:49;;;;;;;2.13;1.20;;;;;;;;;;4934475;29;20188;-88
2022/07/06 18:33:55;;;;;;;2.97;1.00;;;;;;;;;;4933246;29;20571;-88
2022/07/06 18:37:00;;;;;;;3.40;1.50;;;;;;;;;;4944736;29;20183;-88
2022/07/06 18:40:04;;;;;;;3.27;1.23;;;;;;;;;;4923202;29;20551;-88
2022/07/06 18:43:09;;;;;;;1.93;1.13;;;;;;;;;;4933109;28;20219;-86
2022/07/06 18:46:14;;;;;;;3.27;1.40;;;;;;;;;;4934167;29;20183;-87
2022/07/06 18:49:18;;;;;;;4.77;1.20;;;;;;;;;;4943692;28;20195;-82
2022/07/06 18:52:22;;;;;;;1.73;1.20;;;;;;;;;;4965594;28;20638;-82
2022/07/06 18:55:26;;;;;;;4.27;1.40;;;;;;;;;;4954003;28;20222;-84
2022/07/06 18:58:30;;;;;;;3.40;1.20;;;;;;;;;;4956827;28;20187;-87
2022/07/06 19:01:58;;;;;;;4.87;1.27;;;;;;;;;;4938702;29;20215;-87